Time;durP1;ratioP1;P1;durP2;ratioP2;P2;SDS_P1;SDS_P2;PMS_P1;PMS_P2;Temp;Humidity;BMP_temperature;BMP_pressure;BME280_temperature;BME280_humidity;BME280_pressure;Samples;Min_cycle;Max_cycle;Signal;HPM_P1;HPM_P2
2022/09/17 00:00:21;;;;;;;;;;;;;;;;;;1042675;28;4355;-57
2022/09/17 00:01:17;;;;;;;;;;;;;;;;;;1041921;28;3986;-55
2022/09/17 00:01:47;;;;;;;;;;;;;;;;;;1043441;28;3872;-57
2022/09/17 00:02:17;;;;;;;;;;;;;;;;;;1043615;28;3926;-54
2022/09/17 00:02:51;;;;;;;;;;;;;;;;;;1045111;28;2880;-54
2022/09/17 00:03:22;;;;;;;;;;;;;;;;;;1044542;28;3906;-54
2022/09/17 00:03:59;;;;;;;;;;;;;;;;;;1047451;28;2855;-55
2022/09/17 00:04:30;;;;;;;;;;;;;;;;;;1047972;28;3854;-57
2022/09/17 00:05:00;;;;;;;;;;;;;;;;;;1047293;28;3735;-57
2022/09/17 00:05:30;;;;;;;;;;;;;;;;;;1047757;28;3786;-58
2022/09/17 00:06:02;;;;;;;;;;;;;;;;;;1046276;28;2602;-57
2022/09/17 00:06:33;;;;;;;;;;;;;;;;;;1048025;28;4004;-55
2022/09/17 00:07:04;;;;;;;;;;;;;;;;;;1047900;28;4467;-56
2022/09/17 00:07:34;;;;;;;;;;;;;;;;;;1047748;28;4193;-57
2022/09/17 00:08:05;;;;;;;;;;;;;;;;;;1046959;28;3924;-57
2022/09/17 00:08:37;;;;;;;;;;;;;;;;;;1048300;28;3794;-54
2022/09/17 00:09:07;;;;;;;;;;;;;;;;;;1047814;28;3899;-55
2022/09/17 00:09:38;;;;;;;;;;;;;;;;;;1049530;28;3775;-58
2022/09/17 00:10:08;;;;;;;;;;;;;;;;;;1046201;28;3913;-57
2022/09/17 00:10:40;;;;;;;;;;;;;;;;;;1049088;28;3863;-56
2022/09/17 00:11:15;;;;;;;;;;;;;;;;;;1047382;28;3900;-55
2022/09/17 00:11:45;;;;;;;;;;;;;;;;;;1047972;28;3555;-57
2022/09/17 00:12:16;;;;;;;;;;;;;;;;;;1046734;28;3943;-57
2022/09/17 00:12:46;;;;;;;;;;;;;;;;;;1047660;28;3672;-57
2022/09/17 00:13:16;;;;;;;;;;;;;;;;;;1047293;28;3968;-57
2022/09/17 00:13:47;;;;;;;;;;;;;;;;;;1048934;28;3185;-55
2022/09/17 00:14:18;;;;;;;;;;;;;;;;;;1046294;28;3953;-56
2022/09/17 00:14:48;;;;;;;;;;;;;;;;;;1049034;28;3891;-58
2022/09/17 00:15:18;;;;;;;;;;;;;;;;;;1047061;28;4148;-55
2022/09/17 00:15:51;;;;;;;;;;;;;;;;;;1049093;28;2028;-56
2022/09/17 00:16:32;;;;;;;;;;;;;;;;;;1047366;28;3984;-56
2022/09/17 00:17:02;;;;;;;;;;;;;;;;;;1048263;28;3605;-55
2022/09/17 00:17:32;;;;;;;;;;;;;;;;;;1046496;28;3954;-56
2022/09/17 00:18:02;;;;;;;;;;;;;;;;;;1049606;28;3887;-51
2022/09/17 00:18:35;;;;;;;;;;;;;;;;;;1049441;28;4027;-58
2022/09/17 00:19:07;;;;;;;;;;;;;;;;;;1045803;28;3921;-56
2022/09/17 00:19:38;;;;;;;;;;;;;;;;;;1048779;28;3221;-57
2022/09/17 00:20:09;;;;;;;;;;;;;;;;;;1046661;28;4083;-54
2022/09/17 00:20:41;;;;;;;;;;;;;;;;;;1047781;28;6378;-57
2022/09/17 00:21:15;;;;;;;;;;;;;;;;;;1047909;28;4003;-56
2022/09/17 00:21:46;;;;;;;;;;;;;;;;;;1048017;28;3346;-53
2022/09/17 00:22:16;;;;;;;;;;;;;;;;;;1047217;28;4025;-58
2022/09/17 00:22:46;;;;;;;;;;;;;;;;;;1048101;28;3731;-55
2022/09/17 00:23:17;;;;;;;;;;;;;;;;;;1048287;28;3961;-55
2022/09/17 00:23:47;;;;;;;;;;;;;;;;;;1047215;28;3974;-56
2022/09/17 00:24:18;;;;;;;;;;;;;;;;;;1047554;28;4030;-57
2022/09/17 00:24:48;;;;;;;;;;;;;;;;;;1045127;28;3697;-58
2022/09/17 00:25:19;;;;;;;;;;;;;;;;;;1042880;28;4033;-57
2022/09/17 00:25:49;;;;;;;;;;;;;;;;;;1047982;28;2893;-57
2022/09/17 00:26:19;;;;;;;;;;;;;;;;;;1046342;28;4218;-56
2022/09/17 00:26:50;;;;;;;;;;;;;;;;;;1044643;28;3674;-56
2022/09/17 00:27:21;;;;;;;;;;;;;;;;;;1043605;28;4043;-56
2022/09/17 00:27:51;;;;;;;;;;;;;;;;;;1043699;28;4056;-57
2022/09/17 00:28:21;;;;;;;;;;;;;;;;;;1046848;28;4105;-57
2022/09/17 00:28:52;;;;;;;;;;;;;;;;;;1053434;28;3724;-55
2022/09/17 00:29:22;;;;;;;;;;;;;;;;;;1053177;28;3900;-56
2022/09/17 00:29:53;;;;;;;;;;;;;;;;;;1050528;28;3694;-57
2022/09/17 00:30:23;;;;;;;;;;;;;;;;;;1047736;28;3918;-58
2022/09/17 00:30:53;;;;;;;;;;;;;;;;;;1047730;28;3925;-59
2022/09/17 00:31:24;;;;;;;;;;;;;;;;;;1044132;28;4853;-54
2022/09/17 00:31:54;;;;;;;;;;;;;;;;;;1044177;28;4122;-58
2022/09/17 00:32:26;;;;;;;;;;;;;;;;;;1043197;28;4283;-56
2022/09/17 00:32:56;;;;;;;;;;;;;;;;;;1043659;28;3816;-55
2022/09/17 00:33:27;;;;;;;;;;;;;;;;;;1047079;28;3972;-58
2022/09/17 00:33:58;;;;;;;;;;;;;;;;;;1048076;28;3803;-55
2022/09/17 00:34:28;;;;;;;;;;;;;;;;;;1048383;28;4940;-56
2022/09/17 00:34:58;;;;;;;;;;;;;;;;;;1047744;28;3988;-57
2022/09/17 00:35:28;;;;;;;;;;;;;;;;;;1048564;28;3907;-55
2022/09/17 00:35:59;;;;;;;;;;;;;;;;;;1046110;28;3747;-54
2022/09/17 00:36:30;;;;;;;;;;;;;;;;;;1047245;28;4027;-55
2022/09/17 00:37:00;;;;;;;;;;;;;;;;;;1048335;28;3839;-57
2022/09/17 00:37:31;;;;;;;;;;;;;;;;;;1043667;28;4278;-55
2022/09/17 00:38:01;;;;;;;;;;;;;;;;;;1043437;28;3638;-56
2022/09/17 00:38:32;;;;;;;;;;;;;;;;;;1045027;28;3980;-58
2022/09/17 00:39:03;;;;;;;;;;;;;;;;;;1044661;28;3936;-55
2022/09/17 00:39:33;;;;;;;;;;;;;;;;;;1047845;28;3772;-57
2022/09/17 00:40:04;;;;;;;;;;;;;;;;;;1048362;28;3950;-55
2022/09/17 00:40:34;;;;;;;;;;;;;;;;;;1047038;28;3149;-55
2022/09/17 00:41:05;;;;;;;;;;;;;;;;;;1046993;28;4088;-53
2022/09/17 00:41:36;;;;;;;;;;;;;;;;;;1047290;28;3004;-56
2022/09/17 00:42:09;;;;;;;;;;;;;;;;;;1048123;28;3892;-57
2022/09/17 00:42:39;;;;;;;;;;;;;;;;;;1046289;28;3935;-55
2022/09/17 00:43:11;;;;;;;;;;;;;;;;;;1047300;28;4083;-56
2022/09/17 00:43:45;;;;;;;;;;;;;;;;;;1048056;28;3379;-55
2022/09/17 00:44:39;;;;;;;;;;;;;;;;;;1049202;28;3970;-56
2022/09/17 00:45:23;;;;;;;;;;;;;;;;;;1046492;28;4071;-58
2022/09/17 00:46:01;;;;;;;;;;;;;;;;;;1043399;28;3742;-53
2022/09/17 00:46:35;;;;;;;;;;;;;;;;;;1042164;28;3876;-54
2022/09/17 00:47:17;;;;;;;;;;;;;;;;;;1044286;28;3979;-56
2022/09/17 00:47:55;;;;;;;;;;;;;;;;;;1043510;28;3679;-57
2022/09/17 00:48:32;;;;;;;;;;;;;;;;;;1043094;28;3776;-58
2022/09/17 00:49:10;;;;;;;;;;;;;;;;;;1044209;28;3300;-58
2022/09/17 00:49:40;;;;;;;;;;;;;;;;;;1044248;28;4183;-57
2022/09/17 00:50:20;;;;;;;;;;;;;;;;;;1044406;28;3900;-56
2022/09/17 00:50:50;;;;;;;;;;;;;;;;;;1043806;28;3903;-57
2022/09/17 00:51:29;;;;;;;;;;;;;;;;;;1045729;28;3863;-57
2022/09/17 00:52:03;;;;;;;;;;;;;;;;;;1049082;28;3716;-55
2022/09/17 00:52:40;;;;;;;;;;;;;;;;;;1047877;28;3881;-55
2022/09/17 00:53:12;;;;;;;;;;;;;;;;;;1042296;28;3978;-57
2022/09/17 00:53:42;;;;;;;;;;;;;;;;;;1044435;28;3968;-58
2022/09/17 00:54:13;;;;;;;;;;;;;;;;;;1043341;28;3881;-55
2022/09/17 00:54:45;;;;;;;;;;;;;;;;;;1043519;28;3442;-57
2022/09/17 00:55:21;;;;;;;;;;;;;;;;;;1044430;28;3926;-55
2022/09/17 00:55:57;;;;;;;;;;;;;;;;;;1042719;28;3931;-57
2022/09/17 00:56:30;;;;;;;;;;;;;;;;;;1043602;28;4102;-55
2022/09/17 00:57:01;;;;;;;;;;;;;;;;;;1044535;28;3052;-57
2022/09/17 00:57:31;;;;;;;;;;;;;;;;;;1044893;28;4033;-56
2022/09/17 00:58:04;;;;;;;;;;;;;;;;;;1041874;28;3821;-54
2022/09/17 00:58:35;;;;;;;;;;;;;;;;;;1043725;28;3592;-58
2022/09/17 00:59:06;;;;;;;;;;;;;;;;;;1048840;28;4099;-57
2022/09/17 00:59:37;;;;;;;;;;;;;;;;;;1047986;28;3381;-56
2022/09/17 01:00:08;;;;;;;;;;;;;;;;;;1041005;28;4085;-57
2022/09/17 01:00:38;;;;;;;;;;;;;;;;;;1047480;28;3029;-57
2022/09/17 01:01:08;;;;;;;;;;;;;;;;;;1043290;28;4072;-58
2022/09/17 01:01:39;;;;;;;;;;;;;;;;;;1042984;28;3735;-57
2022/09/17 01:02:09;;;;;;;;;;;;;;;;;;1043204;28;4004;-54
2022/09/17 01:02:40;;;;;;;;;;;;;;;;;;1043222;28;2984;-56
2022/09/17 01:03:10;;;;;;;;;;;;;;;;;;1042349;28;3962;-58
2022/09/17 01:03:41;;;;;;;;;;;;;;;;;;1043557;28;4173;-54
2022/09/17 01:04:15;;;;;;;;;;;;;;;;;;1043610;28;4111;-54
2022/09/17 01:04:45;;;;;;;;;;;;;;;;;;1043608;28;3386;-58
2022/09/17 01:05:16;;;;;;;;;;;;;;;;;;1044285;28;4461;-57
2022/09/17 01:06:09;;;;;;;;;;;;;;;;;;1044244;28;3181;-57
2022/09/17 01:06:52;;;;;;;;;;;;;;;;;;1043146;28;3718;-56
2022/09/17 01:07:35;;;;;;;;;;;;;;;;;;1042624;28;4027;-57
2022/09/17 01:08:09;;;;;;;;;;;;;;;;;;1043991;28;4096;-57
2022/09/17 01:08:48;;;;;;;;;;;;;;;;;;1042734;28;2970;-55
2022/09/17 01:09:37;;;;;;;;;;;;;;;;;;1044223;28;4459;-57
2022/09/17 01:10:16;;;;;;;;;;;;;;;;;;1041408;28;4149;-57
2022/09/17 01:10:54;;;;;;;;;;;;;;;;;;1041790;28;3501;-57
2022/09/17 01:11:34;;;;;;;;;;;;;;;;;;1043071;28;4125;-55
2022/09/17 01:12:23;;;;;;;;;;;;;;;;;;1044058;28;4049;-55
2022/09/17 01:12:58;;;;;;;;;;;;;;;;;;1043199;28;4128;-58
2022/09/17 01:13:43;;;;;;;;;;;;;;;;;;1043310;28;3817;-56
2022/09/17 01:14:32;;;;;;;;;;;;;;;;;;1043312;28;3926;-58
2022/09/17 01:15:21;;;;;;;;;;;;;;;;;;1044719;28;3723;-56
2022/09/17 01:16:06;;;;;;;;;;;;;;;;;;1043271;28;3816;-56
2022/09/17 01:16:43;;;;;;;;;;;;;;;;;;1044768;28;3849;-56
2022/09/17 01:17:32;;;;;;;;;;;;;;;;;;1044006;28;4062;-57
2022/09/17 01:18:05;;;;;;;;;;;;;;;;;;1043645;28;3950;-55
2022/09/17 01:19:03;;;;;;;;;;;;;;;;;;1043727;28;3763;-56
2022/09/17 01:19:52;;;;;;;;;;;;;;;;;;1043447;28;3797;-54
2022/09/17 01:20:41;;;;;;;;;;;;;;;;;;1043277;28;4155;-58
2022/09/17 01:21:11;;;;;;;;;;;;;;;;;;1042274;28;3962;-56
2022/09/17 01:21:45;;;;;;;;;;;;;;;;;;1043614;28;3316;-58
2022/09/17 01:22:35;;;;;;;;;;;;;;;;;;1042104;28;4089;-55
2022/09/17 01:23:20;;;;;;;;;;;;;;;;;;1043796;28;3882;-58
2022/09/17 01:24:10;;;;;;;;;;;;;;;;;;1043441;28;3758;-57
2022/09/17 01:25:07;;;;;;;;;;;;;;;;;;1043260;28;4032;-57
2022/09/17 01:25:40;;;;;;;;;;;;;;;;;;1035127;28;3931;-56
2022/09/17 01:26:31;;;;;;;;;;;;;;;;;;1038008;28;3833;-57
2022/09/17 01:27:04;;;;;;;;;;;;;;;;;;1044094;28;3591;-58
2022/09/17 01:27:43;;;;;;;;;;;;;;;;;;1042488;28;4011;-56
2022/09/17 01:28:28;;;;;;;;;;;;;;;;;;1043741;28;4020;-58
2022/09/17 01:28:58;;;;;;;;;;;;;;;;;;1044098;28;3878;-55
2022/09/17 01:29:42;;;;;;;;;;;;;;;;;;1043544;28;4038;-56
2022/09/17 01:30:15;;;;;;;;;;;;;;;;;;1041754;28;4516;-58
2022/09/17 01:30:55;;;;;;;;;;;;;;;;;;1043674;28;3718;-55
2022/09/17 01:31:34;;;;;;;;;;;;;;;;;;1044073;28;3883;-54
2022/09/17 01:32:11;;;;;;;;;;;;;;;;;;1044698;28;3883;-58
2022/09/17 01:32:41;;;;;;;;;;;;;;;;;;1043576;28;3762;-58
2022/09/17 01:33:21;;;;;;;;;;;;;;;;;;1042728;28;3866;-57
2022/09/17 01:34:08;;;;;;;;;;;;;;;;;;1043960;28;3635;-56
2022/09/17 01:34:53;;;;;;;;;;;;;;;;;;1048985;28;3795;-57
2022/09/17 01:35:32;;;;;;;;;;;;;;;;;;1051204;28;4083;-55
2022/09/17 01:36:02;;;;;;;;;;;;;;;;;;1051888;28;3958;-56
2022/09/17 01:36:44;;;;;;;;;;;;;;;;;;1044578;28;3772;-57
2022/09/17 01:37:18;;;;;;;;;;;;;;;;;;1042030;28;3881;-55
2022/09/17 01:37:48;;;;;;;;;;;;;;;;;;1043067;28;2867;-56
2022/09/17 01:38:25;;;;;;;;;;;;;;;;;;1043549;28;4088;-58
2022/09/17 01:39:01;;;;;;;;;;;;;;;;;;1043880;28;3923;-56
2022/09/17 01:39:35;;;;;;;;;;;;;;;;;;1043320;28;3922;-55
2022/09/17 01:40:28;;;;;;;;;;;;;;;;;;1046563;28;3964;-58
2022/09/17 01:41:17;;;;;;;;;;;;;;;;;;1041614;28;2918;-58
2022/09/17 01:41:53;;;;;;;;;;;;;;;;;;1046912;28;3973;-58
2022/09/17 01:42:33;;;;;;;;;;;;;;;;;;1042655;28;3893;-55
2022/09/17 01:43:07;;;;;;;;;;;;;;;;;;1044694;28;4316;-55
2022/09/17 01:44:10;;;;;;;;;;;;;;;;;;1041977;28;3810;-56
2022/09/17 01:44:56;;;;;;;;;;;;;;;;;;1025645;28;3923;-55
2022/09/17 01:45:47;;;;;;;;;;;;;;;;;;1022963;28;7912;-55
2022/09/17 01:46:21;;;;;;;;;;;;;;;;;;1039837;28;4060;-58
2022/09/17 01:46:54;;;;;;;;;;;;;;;;;;1039295;28;3866;-53
2022/09/17 01:47:34;;;;;;;;;;;;;;;;;;1040925;28;4112;-57
2022/09/17 01:48:16;;;;;;;;;;;;;;;;;;1031219;28;4082;-57
2022/09/17 01:48:49;;;;;;;;;;;;;;;;;;1030822;28;3641;-57
2022/09/17 01:49:20;;;;;;;;;;;;;;;;;;1033838;28;4018;-56
2022/09/17 01:49:53;;;;;;;;;;;;;;;;;;1037345;28;3596;-55
2022/09/17 01:50:26;;;;;;;;;;;;;;;;;;1039462;28;4018;-57
2022/09/17 01:50:59;;;;;;;;;;;;;;;;;;1039397;28;3748;-57
2022/09/17 01:51:35;;;;;;;;;;;;;;;;;;1040269;28;3800;-56
2022/09/17 01:52:07;;;;;;;;;;;;;;;;;;1039817;28;4053;-57
2022/09/17 01:52:40;;;;;;;;;;;;;;;;;;1039888;28;3111;-58
2022/09/17 01:53:12;;;;;;;;;;;;;;;;;;1038860;28;3963;-57
2022/09/17 01:53:42;;;;;;;;;;;;;;;;;;1039796;28;2457;-57
2022/09/17 01:54:27;;;;;;;;;;;;;;;;;;1039811;28;3855;-58
2022/09/17 01:55:00;;;;;;;;;;;;;;;;;;1039354;28;3722;-54
2022/09/17 01:55:34;;;;;;;;;;;;;;;;;;1038724;28;3836;-56
2022/09/17 01:56:06;;;;;;;;;;;;;;;;;;1040152;28;4172;-57
2022/09/17 01:56:39;;;;;;;;;;;;;;;;;;1040154;28;2936;-57
2022/09/17 01:57:13;;;;;;;;;;;;;;;;;;1039047;28;3984;-55
2022/09/17 01:57:50;;;;;;;;;;;;;;;;;;1040522;28;1698;-56
2022/09/17 01:58:23;;;;;;;;;;;;;;;;;;1039725;28;4125;-55
2022/09/17 01:59:22;;;;;;;;;;;;;;;;;;1040332;28;3844;-58
2022/09/17 02:00:10;;;;;;;;;;;;;;;;;;1027829;28;3995;-57
2022/09/17 02:00:44;;;;;;;;;;;;;;;;;;1039011;28;3918;-57
2022/09/17 02:01:16;;;;;;;;;;;;;;;;;;1037190;28;3866;-57
2022/09/17 02:01:49;;;;;;;;;;;;;;;;;;1039281;28;3643;-55
2022/09/17 02:02:33;;;;;;;;;;;;;;;;;;1039392;28;4176;-55
2022/09/17 02:03:18;;;;;;;;;;;;;;;;;;1040260;28;4066;-55
2022/09/17 02:04:04;;;;;;;;;;;;;;;;;;1040172;28;3847;-56
2022/09/17 02:04:37;;;;;;;;;;;;;;;;;;1038118;28;3955;-58
2022/09/17 02:05:13;;;;;;;;;;;;;;;;;;1039753;28;3895;-54
2022/09/17 02:05:46;;;;;;;;;;;;;;;;;;1041023;28;3630;-57
2022/09/17 02:06:20;;;;;;;;;;;;;;;;;;1037989;28;3925;-54
2022/09/17 02:06:56;;;;;;;;;;;;;;;;;;1040050;28;3828;-55
2022/09/17 02:07:27;;;;;;;;;;;;;;;;;;1038830;28;4177;-57
2022/09/17 02:08:01;;;;;;;;;;;;;;;;;;1040057;28;4315;-58
2022/09/17 02:08:51;;;;;;;;;;;;;;;;;;1039319;28;3964;-57
2022/09/17 02:09:25;;;;;;;;;;;;;;;;;;1039031;28;4021;-55
2022/09/17 02:10:01;;;;;;;;;;;;;;;;;;1040603;28;3464;-57
2022/09/17 02:10:34;;;;;;;;;;;;;;;;;;1038707;28;4071;-55
2022/09/17 02:11:08;;;;;;;;;;;;;;;;;;1038550;28;3922;-57
2022/09/17 02:11:39;;;;;;;;;;;;;;;;;;1039587;28;3713;-56
2022/09/17 02:12:11;;;;;;;;;;;;;;;;;;1039458;28;4028;-58
2022/09/17 02:12:44;;;;;;;;;;;;;;;;;;1039799;28;3768;-57
2022/09/17 02:13:15;;;;;;;;;;;;;;;;;;1038105;28;3882;-57
2022/09/17 02:13:54;;;;;;;;;;;;;;;;;;1039726;28;3411;-58
2022/09/17 02:14:27;;;;;;;;;;;;;;;;;;1039555;28;4029;-56
2022/09/17 02:15:08;;;;;;;;;;;;;;;;;;1038871;28;3912;-58
2022/09/17 02:15:41;;;;;;;;;;;;;;;;;;1038284;28;3089;-58
2022/09/17 02:16:15;;;;;;;;;;;;;;;;;;1039401;28;4110;-58
2022/09/17 02:16:51;;;;;;;;;;;;;;;;;;1038598;28;3378;-56
2022/09/17 02:17:28;;;;;;;;;;;;;;;;;;1039365;28;4142;-56
2022/09/17 02:18:14;;;;;;;;;;;;;;;;;;1039613;28;3654;-58
2022/09/17 02:18:44;;;;;;;;;;;;;;;;;;1039782;28;3775;-58
2022/09/17 02:19:36;;;;;;;;;;;;;;;;;;1039180;28;3968;-56
2022/09/17 02:20:07;;;;;;;;;;;;;;;;;;1040074;28;4095;-56
2022/09/17 02:20:41;;;;;;;;;;;;;;;;;;1039197;28;3357;-55
2022/09/17 02:21:30;;;;;;;;;;;;;;;;;;1039031;28;4165;-56
2022/09/17 02:22:03;;;;;;;;;;;;;;;;;;1039531;28;3131;-58
2022/09/17 02:22:34;;;;;;;;;;;;;;;;;;1041201;28;3798;-56
2022/09/17 02:23:07;;;;;;;;;;;;;;;;;;1040368;28;4038;-55
2022/09/17 02:23:42;;;;;;;;;;;;;;;;;;1038231;28;2981;-57
2022/09/17 02:24:17;;;;;;;;;;;;;;;;;;1039405;28;4044;-58
2022/09/17 02:25:03;;;;;;;;;;;;;;;;;;1038819;28;3796;-57
2022/09/17 02:25:36;;;;;;;;;;;;;;;;;;1038624;28;3773;-58
2022/09/17 02:26:10;;;;;;;;;;;;;;;;;;1039175;28;3884;-58
2022/09/17 02:26:44;;;;;;;;;;;;;;;;;;1038401;28;3130;-57
2022/09/17 02:27:27;;;;;;;;;;;;;;;;;;1037382;28;4247;-55
2022/09/17 02:28:01;;;;;;;;;;;;;;;;;;1038296;28;2917;-56
2022/09/17 02:28:41;;;;;;;;;;;;;;;;;;1038244;28;4931;-57
2022/09/17 02:29:17;;;;;;;;;;;;;;;;;;1040000;28;3885;-55
2022/09/17 02:29:47;;;;;;;;;;;;;;;;;;1039404;28;3783;-56
2022/09/17 02:30:18;;;;;;;;;;;;;;;;;;1038567;28;4126;-53
2022/09/17 02:30:49;;;;;;;;;;;;;;;;;;1039084;28;4090;-52
2022/09/17 02:31:19;;;;;;;;;;;;;;;;;;1038299;28;4019;-57
2022/09/17 02:31:50;;;;;;;;;;;;;;;;;;1037322;28;4594;-58
2022/09/17 02:32:20;;;;;;;;;;;;;;;;;;1039589;28;3921;-54
2022/09/17 02:32:50;;;;;;;;;;;;;;;;;;1039290;28;4270;-56
2022/09/17 02:33:21;;;;;;;;;;;;;;;;;;1039671;28;4220;-56
2022/09/17 02:33:56;;;;;;;;;;;;;;;;;;1039996;28;3701;-57
2022/09/17 02:34:27;;;;;;;;;;;;;;;;;;1038533;28;4358;-58
2022/09/17 02:34:57;;;;;;;;;;;;;;;;;;1039085;28;3863;-59
2022/09/17 02:35:29;;;;;;;;;;;;;;;;;;1038623;28;3937;-57
2022/09/17 02:36:00;;;;;;;;;;;;;;;;;;1040258;28;3756;-56
2022/09/17 02:36:31;;;;;;;;;;;;;;;;;;1037640;28;3934;-57
2022/09/17 02:37:02;;;;;;;;;;;;;;;;;;1038688;28;3831;-58
2022/09/17 02:37:32;;;;;;;;;;;;;;;;;;1038691;28;3961;-57
2022/09/17 02:38:02;;;;;;;;;;;;;;;;;;1040812;28;3702;-55
2022/09/17 02:38:33;;;;;;;;;;;;;;;;;;1038896;28;3939;-58
2022/09/17 02:39:03;;;;;;;;;;;;;;;;;;1040361;28;3794;-58
2022/09/17 02:39:33;;;;;;;;;;;;;;;;;;1042941;28;3807;-59
2022/09/17 02:40:05;;;;;;;;;;;;;;;;;;1038281;28;4155;-55
2022/09/17 02:40:40;;;;;;;;;;;;;;;;;;1039334;28;4407;-58
2022/09/17 02:41:18;;;;;;;;;;;;;;;;;;1040642;28;4130;-57
2022/09/17 02:42:07;;;;;;;;;;;;;;;;;;1037312;28;2961;-58
2022/09/17 02:42:56;;;;;;;;;;;;;;;;;;1039117;28;3651;-59
2022/09/17 02:43:37;;;;;;;;;;;;;;;;;;1039872;28;4042;-56
2022/09/17 02:44:11;;;;;;;;;;;;;;;;;;1038424;28;3899;-56
2022/09/17 02:44:42;;;;;;;;;;;;;;;;;;1039492;28;4097;-56
2022/09/17 02:45:24;;;;;;;;;;;;;;;;;;1041589;28;4045;-58
2022/09/17 02:46:04;;;;;;;;;;;;;;;;;;1048219;28;3779;-58
2022/09/17 02:46:53;;;;;;;;;;;;;;;;;;1046925;28;3828;-56
2022/09/17 02:47:32;;;;;;;;;;;;;;;;;;1047379;28;3959;-57
2022/09/17 02:48:28;;;;;;;;;;;;;;;;;;1046617;28;3546;-58
2022/09/17 02:49:08;;;;;;;;;;;;;;;;;;1045908;28;4081;-55
2022/09/17 02:49:53;;;;;;;;;;;;;;;;;;1047470;28;3746;-57
2022/09/17 02:50:24;;;;;;;;;;;;;;;;;;1046974;28;4166;-58
2022/09/17 02:51:16;;;;;;;;;;;;;;;;;;1047870;28;3638;-52
2022/09/17 02:51:46;;;;;;;;;;;;;;;;;;1044790;28;4015;-56
2022/09/17 02:52:44;;;;;;;;;;;;;;;;;;1046055;28;3949;-56
2022/09/17 02:53:33;;;;;;;;;;;;;;;;;;1049085;28;3866;-56
2022/09/17 02:54:15;;;;;;;;;;;;;;;;;;1048816;28;4057;-58
2022/09/17 02:54:48;;;;;;;;;;;;;;;;;;1049087;28;3119;-57
2022/09/17 02:55:19;;;;;;;;;;;;;;;;;;1049205;28;4060;-57
2022/09/17 02:55:52;;;;;;;;;;;;;;;;;;1047826;28;3818;-57
2022/09/17 02:56:39;;;;;;;;;;;;;;;;;;1047464;28;4097;-56
2022/09/17 02:57:14;;;;;;;;;;;;;;;;;;1048664;28;3980;-57
2022/09/17 02:57:53;;;;;;;;;;;;;;;;;;1048944;28;3903;-56
2022/09/17 02:58:27;;;;;;;;;;;;;;;;;;1047726;28;3875;-57
2022/09/17 02:59:18;;;;;;;;;;;;;;;;;;1048396;28;4143;-55
2022/09/17 02:59:51;;;;;;;;;;;;;;;;;;1047466;28;3831;-56
2022/09/17 03:00:22;;;;;;;;;;;;;;;;;;1047682;28;3887;-56
2022/09/17 03:00:54;;;;;;;;;;;;;;;;;;1047687;28;4035;-55
2022/09/17 03:01:32;;;;;;;;;;;;;;;;;;1048338;28;4285;-57
2022/09/17 03:02:07;;;;;;;;;;;;;;;;;;1044019;28;4412;-55
2022/09/17 03:02:42;;;;;;;;;;;;;;;;;;1044105;28;3717;-58
2022/09/17 03:03:20;;;;;;;;;;;;;;;;;;1046480;28;4023;-58
2022/09/17 03:03:51;;;;;;;;;;;;;;;;;;1047365;28;3579;-55
2022/09/17 03:04:23;;;;;;;;;;;;;;;;;;1047600;28;3901;-55
2022/09/17 03:04:54;;;;;;;;;;;;;;;;;;1047571;28;3626;-56
2022/09/17 03:05:26;;;;;;;;;;;;;;;;;;1048577;28;4938;-58
2022/09/17 03:05:57;;;;;;;;;;;;;;;;;;1049047;28;3763;-56
2022/09/17 03:06:28;;;;;;;;;;;;;;;;;;1048205;28;4048;-57
2022/09/17 03:07:04;;;;;;;;;;;;;;;;;;1047975;28;3460;-57
2022/09/17 03:07:35;;;;;;;;;;;;;;;;;;1047985;28;3777;-59
2022/09/17 03:08:06;;;;;;;;;;;;;;;;;;1045076;28;3889;-56
2022/09/17 03:08:39;;;;;;;;;;;;;;;;;;1044695;28;3670;-55
2022/09/17 03:09:09;;;;;;;;;;;;;;;;;;1039804;28;4120;-56
2022/09/17 03:09:42;;;;;;;;;;;;;;;;;;1041177;28;3864;-58
2022/09/17 03:10:12;;;;;;;;;;;;;;;;;;1044676;28;4130;-55
2022/09/17 03:10:43;;;;;;;;;;;;;;;;;;1042886;28;3540;-55
2022/09/17 03:11:13;;;;;;;;;;;;;;;;;;1048040;28;4002;-56
2022/09/17 03:11:44;;;;;;;;;;;;;;;;;;1043406;28;3313;-56
2022/09/17 03:12:14;;;;;;;;;;;;;;;;;;1041611;28;3984;-57
2022/09/17 03:12:44;;;;;;;;;;;;;;;;;;1045606;28;3809;-58
2022/09/17 03:13:15;;;;;;;;;;;;;;;;;;1043485;28;4445;-57
2022/09/17 03:13:45;;;;;;;;;;;;;;;;;;1047210;28;3743;-56
2022/09/17 03:14:16;;;;;;;;;;;;;;;;;;1050962;28;4056;-56
2022/09/17 03:14:46;;;;;;;;;;;;;;;;;;1050842;28;2985;-55
2022/09/17 03:15:16;;;;;;;;;;;;;;;;;;1047388;28;3906;-56
2022/09/17 03:15:54;;;;;;;;;;;;;;;;;;1048466;28;3776;-59
2022/09/17 03:16:24;;;;;;;;;;;;;;;;;;1047265;28;4039;-56
2022/09/17 03:16:54;;;;;;;;;;;;;;;;;;1048371;28;4932;-54
2022/09/17 03:17:24;;;;;;;;;;;;;;;;;;1048061;28;3812;-58
2022/09/17 03:17:55;;;;;;;;;;;;;;;;;;1048161;28;2631;-55
2022/09/17 03:18:25;;;;;;;;;;;;;;;;;;1049129;28;4188;-58
2022/09/17 03:18:55;;;;;;;;;;;;;;;;;;1042519;28;4112;-57
2022/09/17 03:19:26;;;;;;;;;;;;;;;;;;1048333;28;3795;-57
2022/09/17 03:19:57;;;;;;;;;;;;;;;;;;1049830;28;3806;-58
2022/09/17 03:20:27;;;;;;;;;;;;;;;;;;1049305;28;3966;-57
2022/09/17 03:20:57;;;;;;;;;;;;;;;;;;1050179;27;3551;-55
2022/09/17 03:21:28;;;;;;;;;;;;;;;;;;1047139;28;3879;-58
2022/09/17 03:21:58;;;;;;;;;;;;;;;;;;1047385;28;3646;-52
2022/09/17 03:22:28;;;;;;;;;;;;;;;;;;1048947;28;3798;-57
2022/09/17 03:22:58;;;;;;;;;;;;;;;;;;1048492;28;2945;-57
2022/09/17 03:23:29;;;;;;;;;;;;;;;;;;1045172;28;3926;-58
2022/09/17 03:23:59;;;;;;;;;;;;;;;;;;1045879;28;3935;-55
2022/09/17 03:24:30;;;;;;;;;;;;;;;;;;1048731;28;4019;-56
2022/09/17 03:25:00;;;;;;;;;;;;;;;;;;1046421;28;3735;-53
2022/09/17 03:25:30;;;;;;;;;;;;;;;;;;1044407;28;4132;-56
2022/09/17 03:26:00;;;;;;;;;;;;;;;;;;1047288;28;3803;-56
2022/09/17 03:26:31;;;;;;;;;;;;;;;;;;1047947;28;3801;-55
2022/09/17 03:27:01;;;;;;;;;;;;;;;;;;1047206;28;3630;-57
2022/09/17 03:27:31;;;;;;;;;;;;;;;;;;1048308;28;3775;-58
2022/09/17 03:28:02;;;;;;;;;;;;;;;;;;1048441;28;3711;-58
2022/09/17 03:28:32;;;;;;;;;;;;;;;;;;1048323;28;4287;-56
2022/09/17 03:29:02;;;;;;;;;;;;;;;;;;1048257;28;3945;-58
2022/09/17 03:29:32;;;;;;;;;;;;;;;;;;1047382;28;4200;-58
2022/09/17 03:30:03;;;;;;;;;;;;;;;;;;1047503;28;3091;-58
2022/09/17 03:30:34;;;;;;;;;;;;;;;;;;1044211;28;3738;-57
2022/09/17 03:31:04;;;;;;;;;;;;;;;;;;1043574;28;3914;-57
2022/09/17 03:31:35;;;;;;;;;;;;;;;;;;1044505;28;3994;-56
2022/09/17 03:32:05;;;;;;;;;;;;;;;;;;1044064;28;4102;-54
2022/09/17 03:32:36;;;;;;;;;;;;;;;;;;1048331;28;3522;-57
2022/09/17 03:33:06;;;;;;;;;;;;;;;;;;1047868;28;3895;-55
2022/09/17 03:33:36;;;;;;;;;;;;;;;;;;1046607;28;3857;-57
2022/09/17 03:34:07;;;;;;;;;;;;;;;;;;1046255;28;4200;-56
2022/09/17 03:34:37;;;;;;;;;;;;;;;;;;1048267;28;2886;-56
2022/09/17 03:35:08;;;;;;;;;;;;;;;;;;1045188;28;4107;-57
2022/09/17 03:35:41;;;;;;;;;;;;;;;;;;1046444;28;3808;-57
2022/09/17 03:36:11;;;;;;;;;;;;;;;;;;1046427;28;4093;-57
2022/09/17 03:36:42;;;;;;;;;;;;;;;;;;1048252;28;3645;-52
2022/09/17 03:37:12;;;;;;;;;;;;;;;;;;1045610;28;6836;-54
2022/09/17 03:37:42;;;;;;;;;;;;;;;;;;1042048;28;4648;-57
2022/09/17 03:38:13;;;;;;;;;;;;;;;;;;1042252;28;5702;-56
2022/09/17 03:38:43;;;;;;;;;;;;;;;;;;1043577;28;3548;-56
2022/09/17 03:39:13;;;;;;;;;;;;;;;;;;1042342;28;4055;-53
2022/09/17 03:39:44;;;;;;;;;;;;;;;;;;1047874;28;3715;-56
2022/09/17 03:40:14;;;;;;;;;;;;;;;;;;1048150;28;3888;-57
2022/09/17 03:40:55;;;;;;;;;;;;;;;;;;1048487;28;3864;-56
2022/09/17 03:41:25;;;;;;;;;;;;;;;;;;1047756;28;3866;-56
2022/09/17 03:41:55;;;;;;;;;;;;;;;;;;1047837;28;2917;-56
2022/09/17 03:42:26;;;;;;;;;;;;;;;;;;1047641;28;4031;-56
2022/09/17 03:42:56;;;;;;;;;;;;;;;;;;1049147;28;3043;-56
2022/09/17 03:43:27;;;;;;;;;;;;;;;;;;1046729;28;4207;-53
2022/09/17 03:43:57;;;;;;;;;;;;;;;;;;1048353;28;3726;-56
2022/09/17 03:44:27;;;;;;;;;;;;;;;;;;1047243;28;4345;-56
2022/09/17 03:44:57;;;;;;;;;;;;;;;;;;1048460;28;3797;-56
2022/09/17 03:45:34;;;;;;;;;;;;;;;;;;1045303;28;3827;-56
2022/09/17 03:46:11;;;;;;;;;;;;;;;;;;1048503;28;4045;-57
2022/09/17 03:46:49;;;;;;;;;;;;;;;;;;1048651;28;3756;-56
2022/09/17 03:47:19;;;;;;;;;;;;;;;;;;1047347;28;3969;-57
2022/09/17 03:47:49;;;;;;;;;;;;;;;;;;1048271;28;1948;-57
2022/09/17 03:48:19;;;;;;;;;;;;;;;;;;1050715;28;3965;-54
2022/09/17 03:48:50;;;;;;;;;;;;;;;;;;1052311;28;3879;-56
2022/09/17 03:49:22;;;;;;;;;;;;;;;;;;1051956;28;4117;-55
2022/09/17 03:49:52;;;;;;;;;;;;;;;;;;1052184;28;4026;-57
2022/09/17 03:50:23;;;;;;;;;;;;;;;;;;1048992;28;3858;-58
2022/09/17 03:50:53;;;;;;;;;;;;;;;;;;1048068;28;2870;-55
2022/09/17 03:51:23;;;;;;;;;;;;;;;;;;1047223;28;4141;-55
2022/09/17 03:51:54;;;;;;;;;;;;;;;;;;1047782;28;3025;-57
2022/09/17 03:52:24;;;;;;;;;;;;;;;;;;1047578;28;3772;-57
2022/09/17 03:52:55;;;;;;;;;;;;;;;;;;1047064;28;2958;-55
2022/09/17 03:53:25;;;;;;;;;;;;;;;;;;1043096;28;3941;-56
2022/09/17 03:53:55;;;;;;;;;;;;;;;;;;1042939;28;3723;-57
2022/09/17 03:54:25;;;;;;;;;;;;;;;;;;1042958;28;4086;-55
2022/09/17 03:54:56;;;;;;;;;;;;;;;;;;1042667;28;3739;-54
2022/09/17 03:55:26;;;;;;;;;;;;;;;;;;1047962;28;4280;-55
2022/09/17 03:55:58;;;;;;;;;;;;;;;;;;1048989;28;3922;-58
2022/09/17 03:56:28;;;;;;;;;;;;;;;;;;1047086;28;4073;-58
2022/09/17 03:56:58;;;;;;;;;;;;;;;;;;1049045;28;3653;-57
2022/09/17 03:57:29;;;;;;;;;;;;;;;;;;1048371;28;3884;-54
2022/09/17 03:57:59;;;;;;;;;;;;;;;;;;1045046;28;4044;-55
2022/09/17 03:58:29;;;;;;;;;;;;;;;;;;1040947;28;4103;-54
2022/09/17 03:59:00;;;;;;;;;;;;;;;;;;1041397;28;3892;-57
2022/09/17 03:59:30;;;;;;;;;;;;;;;;;;1041248;28;3982;-57